Sunday, May 29, 2016
07:44 UTC
  |  Log In   |  Register Free
Airport Search:

Lincoln Airport
(KLNK)

FAA data valid effective Mar 31 2016 - May 26 2016 (unless otherwise noted).

 
 
 
 
 
 
 
 
 
 
 
 
 
 
Current Aviation Weather for KLNK

Weather Summary


The most recent METAR observation for LNK was updated at: 12:54 UTC
METAR for KLNK is not available. Closest METAR is for KAHQ
KLNK  (most recent observation was updatred at 29:06 UTC)
290654Z AUTO 00000KT 10SM CLR 16/13 A3001 RMK AO2 SLP157 T01560133

KAHQ  (24.6 nm SW)   (most recent observation was updated at 29:07 UTC)
290735Z AUTO 00000KT 10SM CLR 15/13 A3000 RMK AO2 T01510131

KBIE  (33.0 nm NW)   (most recent observation was updated at 29:07 UTC)
290735Z AUTO 00000KT 10SM CLR 15/14 A3002 RMK AO2 T01480136

TAF for KLNK is not available.
KLNK
290520Z 2906/3006 27005KT P6SM SCT250 FM290800 24004KT P6SM BKN100

GlobalAir.com is loading additional information.
 Current Weather at LNK
59.0 F° (15.0 C°)

North winds at 0.0 mph
Pressure:
30.01 in
Humidity:
90%
Wind:
North at 0.0 mph
Dew Point:
55.9 F° (13.3 C°)
Visibility:
10.00 mi
LNK NOAA Radar




Find All Airport Services Find A Hotel Find A Rental Car Find A Golf Course Find A Restaurant $100 Hamburger



Airport Weather Forecast for KLNK

Translated METAR for KLNK (0654 UTC)
METAR:
KLNK 290654Z AUTO 00000KT 10SM CLR 16/13 A3001 RMK AO2 SLP157 T01560133
Conditions at:
KLNK (Lincoln, NE) observed 0654 UTC 29 May 2016
Temperature:
16°C (60.8°F)
Dewpoint:
13°C (55.4°F) [RH = 82.4]
Pressure:
30.01 inches Hg (1016.3 mb)
pressure at sea level is 157 in Hg
Winds:
from the N (000 degrees) at 0 mph (0 knots: 0 m/s)
Visibility:
10 mile(s)
Ceiling:
at least 12,000 feet AGL
Clouds:
Clear below 12,000 feet AGL
Remarks:
site is un-manned
site is automated and HAS a precipitation sensor

Translated TAF for KLNK (Lincoln, NE) (0520 UTC)
TAF text:
KLNK 290520Z 2906/3006 27005KT P6SM SCT250
Forecast period:
Sunday May 29 2016 06:00 UTC - Monday May 30 2016 06:00 UTC
Forecast type:
FROM: standard forecast or significant change
Winds:
from the W (270 degrees) at 5.8 mph (5 knots: 2.6 m/s)
Visibility:
6 or more mile(s) (9.7+ km)
Ceiling:
at least 12,000 feet AGL
Clouds:
Scattered Clouds at 25,000 feet AGL
Weather:
no significant weather observed at this time
TAF text:
FM290800 24004KT P6SM BKN100
Forecast period:
Sunday May 29 2016 08:00 UTC - Monday May 30 2016 06:00 UTC
Forecast type:
FROM: standard forecast or significant change
Winds:
from the WSW (240 degrees) at 4.6 mph (4 knots: 2.1 m/s)
Visibility:
6 or more mile(s) (9.7+ km)
Ceiling:
10,000 feet AGL
Clouds:
Broken Cloud Cover at 10,000 feet AGL
Weather:
no significant weather observed at this time
FBO's on the Field
FBO Company Facility Photos Services Transportation Aviation Fuel Prices: Prices include tax
Catering Weather Repair Courtesy Rental Type 100LL JetA JetA+ MOGAS 8087
 
Duncan Aviation

This FBO has not yet been rated
FS:Avfuel
Last Updated: May-24
Login to update fuel prices
SS:
Contact Duncan AviationMore FBO Information
 
Silverhawk Aviation

This FBO has not yet been rated
FS:Phillips 66
Last Updated: May-24
Login to update fuel prices
SS:
Contact Silverhawk AviationMore FBO Information
 
Add another FBO Facility Photos Catering Weather Repair Courtesy Rental Type 100LL JetA JetA+ MOGAS 8087
Services Transportation Aviation Fuel Prices: Prices include tax


model-print
model-print
model-print
model-print